TSC42 CYUL-CYQM
Flight info
| Callsign | TSC42 |
|---|---|
| Flight time | N/A |
| Altitude | 39000 |
| Route | SUXET DCT NOVUN DCT ESRAM DCT RABIK Q951 PUXOP |
| Aircraft | A21N/M-SDE2E3FGHIJ1RWXY/LB1 |
Departure
| Time | 2026-05-05 19:36 |
|---|---|
| Airport | Montreal / Pierre Elliott Trudeau International Airport (CYUL) |
Arrival
| Time | N/A |
|---|---|
| Airport | Greater Moncton Roméo LeBlanc International Airport (CYQM) |
| Time | Latitude | Longitude | Altitude | Speed | Heading |
|---|---|---|---|---|---|
| 2026-05-05 19:14 | 45.45823 | -73.75681 | 109 ft | 0 kts | 7° |
| 2026-05-05 19:24 | 45.45819 | -73.75682 | 110 ft | 3 kts | 7° |
| 2026-05-05 19:24 | 45.45792 | -73.75687 | 110 ft | 4 kts | 7° |
| 2026-05-05 19:24 | 45.45769 | -73.75691 | 108 ft | 4 kts | 354° |
| 2026-05-05 19:24 | 45.45750 | -73.75679 | 109 ft | 4 kts | 303° |
| 2026-05-05 19:25 | 45.45743 | -73.75643 | 107 ft | 4 kts | 265° |
| 2026-05-05 19:25 | 45.45745 | -73.75626 | 107 ft | 0 kts | 252° |
| 2026-05-05 19:27 | 45.45744 | -73.75630 | 107 ft | 2 kts | 252° |
| 2026-05-05 19:28 | 45.45724 | -73.75738 | 110 ft | 17 kts | 265° |
| 2026-05-05 19:28 | 45.45814 | -73.75921 | 110 ft | 28 kts | 319° |
| 2026-05-05 19:28 | 45.45911 | -73.75949 | 110 ft | 20 kts | 358° |
| 2026-05-05 19:28 | 45.46037 | -73.75946 | 110 ft | 11 kts | 32° |
| 2026-05-05 19:29 | 45.46054 | -73.75760 | 109 ft | 28 kts | 90° |
| 2026-05-05 19:29 | 45.46058 | -73.75639 | 110 ft | 14 kts | 87° |
| 2026-05-05 19:29 | 45.46065 | -73.75480 | 109 ft | 18 kts | 83° |
| 2026-05-05 19:29 | 45.46134 | -73.75338 | 107 ft | 12 kts | 38° |
| 2026-05-05 19:30 | 45.46144 | -73.75264 | 106 ft | 8 kts | 88° |
| 2026-05-05 19:30 | 45.46147 | -73.75158 | 107 ft | 15 kts | 88° |
| 2026-05-05 19:30 | 45.46149 | -73.74983 | 110 ft | 20 kts | 88° |
| 2026-05-05 19:30 | 45.46157 | -73.74786 | 109 ft | 17 kts | 86° |
| 2026-05-05 19:31 | 45.46160 | -73.74614 | 109 ft | 19 kts | 107° |
| 2026-05-05 19:31 | 45.46129 | -73.74431 | 109 ft | 17 kts | 85° |
| 2026-05-05 19:31 | 45.46134 | -73.74250 | 109 ft | 20 kts | 89° |
| 2026-05-05 19:31 | 45.46161 | -73.74039 | 110 ft | 24 kts | 49° |
| 2026-05-05 19:32 | 45.46285 | -73.73865 | 111 ft | 26 kts | 43° |
| 2026-05-05 19:32 | 45.46418 | -73.73690 | 112 ft | 27 kts | 41° |
| 2026-05-05 19:32 | 45.46564 | -73.73503 | 113 ft | 29 kts | 43° |
| 2026-05-05 19:32 | 45.46702 | -73.73319 | 118 ft | 29 kts | 43° |
| 2026-05-05 19:33 | 45.46822 | -73.73152 | 118 ft | 24 kts | 32° |
| 2026-05-05 19:33 | 45.46949 | -73.72996 | 119 ft | 25 kts | 43° |
| 2026-05-05 19:33 | 45.47086 | -73.72820 | 122 ft | 26 kts | 42° |
| 2026-05-05 19:33 | 45.47227 | -73.72634 | 120 ft | 29 kts | 43° |
| 2026-05-05 19:34 | 45.47355 | -73.72461 | 125 ft | 24 kts | 43° |
| 2026-05-05 19:34 | 45.47479 | -73.72300 | 125 ft | 23 kts | 42° |
| 2026-05-05 19:34 | 45.47496 | -73.72180 | 124 ft | 11 kts | 138° |
| 2026-05-05 19:35 | 45.47333 | -73.72217 | 122 ft | 17 kts | 194° |
| 2026-05-05 19:35 | 45.47259 | -73.72222 | 121 ft | 6 kts | 149° |
| 2026-05-05 19:35 | 45.47226 | -73.72227 | 122 ft | 5 kts | 224° |
| 2026-05-05 19:35 | 45.47210 | -73.72249 | 123 ft | 12 kts | 223° |
| 2026-05-05 19:36 | 45.46807 | -73.72787 | 123 ft | 147 kts | 222° |
| 2026-05-05 19:36 | 45.45959 | -73.73837 | 1527 ft | 167 kts | 217° |
| 2026-05-05 19:36 | 45.44926 | -73.75003 | 3093 ft | 214 kts | 222° |
| 2026-05-05 19:36 | 45.43829 | -73.76573 | 4129 ft | 232 kts | 229° |
| 2026-05-05 19:37 | 45.42671 | -73.78225 | 5400 ft | 238 kts | 228° |
| 2026-05-05 19:37 | 45.41477 | -73.79875 | 6716 ft | 241 kts | 227° |
| 2026-05-05 19:37 | 45.40248 | -73.81510 | 7976 ft | 246 kts | 223° |
| 2026-05-05 19:37 | 45.38724 | -73.82733 | 9265 ft | 258 kts | 205° |
| 2026-05-05 19:38 | 45.36879 | -73.83141 | 10249 ft | 286 kts | 185° |
| 2026-05-05 19:38 | 45.34865 | -73.82393 | 11158 ft | 315 kts | 161° |
| 2026-05-05 19:38 | 45.33120 | -73.80402 | 12230 ft | 339 kts | 137° |
| 2026-05-05 19:38 | 45.31920 | -73.77376 | 13381 ft | 359 kts | 115° |
| 2026-05-05 19:39 | 45.31316 | -73.73934 | 14374 ft | 368 kts | 106° |
| 2026-05-05 19:39 | 45.30798 | -73.70345 | 15367 ft | 374 kts | 107° |
| 2026-05-05 19:39 | 45.30212 | -73.66725 | 16354 ft | 379 kts | 109° |
| 2026-05-05 19:39 | 45.29554 | -73.63076 | 17326 ft | 384 kts | 110° |
| 2026-05-05 19:40 | 45.28853 | -73.59385 | 18252 ft | 390 kts | 111° |
| 2026-05-05 19:40 | 45.28130 | -73.55649 | 19110 ft | 394 kts | 111° |
| 2026-05-05 19:40 | 45.27397 | -73.51880 | 19991 ft | 398 kts | 111° |
| 2026-05-05 19:40 | 45.26648 | -73.48063 | 20851 ft | 403 kts | 110° |
| 2026-05-05 19:41 | 45.25891 | -73.44209 | 21693 ft | 408 kts | 110° |
| 2026-05-05 19:41 | 45.25127 | -73.40309 | 22525 ft | 413 kts | 110° |
| 2026-05-05 19:41 | 45.24354 | -73.36361 | 23322 ft | 418 kts | 110° |
| 2026-05-05 19:41 | 45.23570 | -73.32366 | 23984 ft | 423 kts | 110° |
| 2026-05-05 19:42 | 45.22774 | -73.28320 | 24653 ft | 428 kts | 110° |
| 2026-05-05 19:42 | 45.21970 | -73.24223 | 25311 ft | 432 kts | 110° |
| 2026-05-05 19:42 | 45.21165 | -73.20133 | 25941 ft | 438 kts | 109° |
| 2026-05-05 19:42 | 45.20570 | -73.15867 | 26579 ft | 446 kts | 97° |
| 2026-05-05 19:43 | 45.20544 | -73.11432 | 27212 ft | 452 kts | 89° |
| 2026-05-05 19:43 | 45.20682 | -73.06970 | 27820 ft | 456 kts | 88° |
| 2026-05-05 19:43 | 45.20913 | -73.02456 | 28405 ft | 461 kts | 82° |
| 2026-05-05 19:43 | 45.21663 | -72.98019 | 28969 ft | 465 kts | 69° |
| 2026-05-05 19:44 | 45.23034 | -72.93881 | 29526 ft | 466 kts | 58° |
| 2026-05-05 19:44 | 45.24650 | -72.89865 | 30028 ft | 469 kts | 57° |
| 2026-05-05 19:44 | 45.26296 | -72.85843 | 30499 ft | 473 kts | 57° |
| 2026-05-05 19:44 | 45.27871 | -72.81787 | 30952 ft | 478 kts | 63° |
| 2026-05-05 19:45 | 45.29010 | -72.77341 | 31383 ft | 483 kts | 76° |
| 2026-05-05 19:45 | 45.29498 | -72.72608 | 31836 ft | 484 kts | 87° |
| 2026-05-05 19:45 | 45.29682 | -72.67832 | 32350 ft | 485 kts | 89° |
| 2026-05-05 19:45 | 45.29834 | -72.63045 | 32948 ft | 483 kts | 89° |
| 2026-05-05 19:46 | 45.30032 | -72.58274 | 33534 ft | 483 kts | 88° |
| 2026-05-05 19:46 | 45.30288 | -72.53525 | 34037 ft | 482 kts | 87° |
| 2026-05-05 19:46 | 45.30560 | -72.48774 | 34493 ft | 482 kts | 87° |
| 2026-05-05 19:46 | 45.30828 | -72.44029 | 34946 ft | 482 kts | 87° |
| 2026-05-05 19:47 | 45.31089 | -72.39285 | 35381 ft | 482 kts | 88° |
| 2026-05-05 19:47 | 45.31346 | -72.34539 | 35809 ft | 482 kts | 88° |
| 2026-05-05 19:47 | 45.31597 | -72.29849 | 36292 ft | 479 kts | 88° |
| 2026-05-05 19:47 | 45.31848 | -72.25121 | 36733 ft | 479 kts | 88° |
| 2026-05-05 19:48 | 45.32097 | -72.20401 | 37104 ft | 479 kts | 88° |
| 2026-05-05 19:48 | 45.32345 | -72.15678 | 37463 ft | 479 kts | 88° |
| 2026-05-05 19:48 | 45.32592 | -72.10946 | 37818 ft | 480 kts | 88° |
| 2026-05-05 19:48 | 45.32835 | -72.06220 | 38173 ft | 480 kts | 88° |
| 2026-05-05 19:49 | 45.33075 | -72.01535 | 38481 ft | 480 kts | 89° |
| 2026-05-05 19:49 | 45.33237 | -71.98334 | 38627 ft | 481 kts | 89° |
| 2026-05-05 19:49 | 45.33551 | -71.92079 | 38672 ft | 476 kts | 88° |
| 2026-05-05 19:50 | 45.34221 | -71.82794 | 38657 ft | 468 kts | 83° |
| 2026-05-05 19:50 | 45.35222 | -71.73695 | 38658 ft | 468 kts | 83° |
| 2026-05-05 19:51 | 45.36221 | -71.64546 | 38656 ft | 468 kts | 83° |
| 2026-05-05 19:51 | 45.37209 | -71.55388 | 38654 ft | 468 kts | 83° |
| 2026-05-05 19:52 | 45.38185 | -71.46232 | 38657 ft | 468 kts | 83° |
| 2026-05-05 19:52 | 45.39175 | -71.37136 | 38411 ft | 469 kts | 82° |
| 2026-05-05 19:52 | 45.39671 | -71.32551 | 38634 ft | 468 kts | 83° |
| 2026-05-05 19:53 | 45.40136 | -71.27965 | 38706 ft | 468 kts | 84° |
| 2026-05-05 19:53 | 45.41065 | -71.18817 | 38691 ft | 467 kts | 83° |
| 2026-05-05 19:54 | 45.41994 | -71.09657 | 38650 ft | 468 kts | 84° |
| 2026-05-05 19:54 | 45.42816 | -71.00459 | 38657 ft | 469 kts | 89° |
| 2026-05-05 19:55 | 45.43272 | -70.91185 | 38633 ft | 470 kts | 89° |
| 2026-05-05 19:55 | 45.43712 | -70.81912 | 38648 ft | 470 kts | 90° |
| 2026-05-05 19:56 | 45.44113 | -70.72633 | 38638 ft | 470 kts | 89° |
| 2026-05-05 19:56 | 45.44659 | -70.63353 | 38640 ft | 472 kts | 85° |
| 2026-05-05 19:57 | 45.45595 | -70.54113 | 38629 ft | 471 kts | 85° |
| 2026-05-05 19:57 | 45.46526 | -70.44877 | 38654 ft | 471 kts | 85° |
| 2026-05-05 19:58 | 45.47441 | -70.35623 | 38634 ft | 472 kts | 85° |
| 2026-05-05 19:58 | 45.48350 | -70.26410 | 38636 ft | 472 kts | 85° |
| 2026-05-05 19:59 | 45.49252 | -70.17135 | 38630 ft | 473 kts | 85° |
| 2026-05-05 19:59 | 45.50147 | -70.07856 | 38632 ft | 472 kts | 85° |
| 2026-05-05 20:00 | 45.51035 | -69.98593 | 38642 ft | 472 kts | 85° |
| 2026-05-05 20:00 | 45.51917 | -69.89319 | 38631 ft | 472 kts | 85° |
| 2026-05-05 20:01 | 45.52790 | -69.80045 | 38641 ft | 472 kts | 85° |
| 2026-05-05 20:01 | 45.53655 | -69.70768 | 38637 ft | 471 kts | 85° |
| 2026-05-05 20:02 | 45.54513 | -69.61484 | 38665 ft | 472 kts | 85° |
| 2026-05-05 20:02 | 45.55360 | -69.52237 | 38652 ft | 472 kts | 85° |
| 2026-05-05 20:03 | 45.56204 | -69.42939 | 38657 ft | 472 kts | 86° |
| 2026-05-05 20:03 | 45.57041 | -69.33636 | 38652 ft | 472 kts | 86° |
| 2026-05-05 20:04 | 45.57869 | -69.24357 | 38650 ft | 472 kts | 85° |
| 2026-05-05 20:04 | 45.58681 | -69.15111 | 38662 ft | 472 kts | 85° |
| 2026-05-05 20:05 | 45.59496 | -69.05801 | 38664 ft | 472 kts | 85° |
| 2026-05-05 20:05 | 45.60304 | -68.96500 | 38665 ft | 472 kts | 85° |
| 2026-05-05 20:06 | 45.61101 | -68.87195 | 38676 ft | 473 kts | 86° |
| 2026-05-05 20:06 | 45.61892 | -68.77871 | 38644 ft | 471 kts | 86° |
| 2026-05-05 20:07 | 45.62676 | -68.68573 | 38660 ft | 471 kts | 86° |
| 2026-05-05 20:07 | 45.63448 | -68.59292 | 38655 ft | 471 kts | 86° |
| 2026-05-05 20:08 | 45.64214 | -68.49999 | 38670 ft | 471 kts | 86° |
| 2026-05-05 20:08 | 45.64967 | -68.40750 | 38684 ft | 471 kts | 86° |
| 2026-05-05 20:09 | 45.65718 | -68.31463 | 38685 ft | 469 kts | 86° |
| 2026-05-05 20:09 | 45.66458 | -68.22196 | 38691 ft | 469 kts | 86° |
| 2026-05-05 20:10 | 45.67191 | -68.12920 | 38698 ft | 470 kts | 86° |
| 2026-05-05 20:10 | 45.67917 | -68.03664 | 38681 ft | 472 kts | 86° |